Time;durP1;ratioP1;P1;durP2;ratioP2;P2;SDS_P1;SDS_P2;PMS_P1;PMS_P2;Temp;Humidity;BMP_temperature;BMP_pressure;BME280_temperature;BME280_humidity;BME280_pressure;Samples;Min_cycle;Max_cycle;Signal;HPM_P1;HPM_P2
2024/04/06 00:00:51;;;;;;;0.77;0.75;;;;;;;;;;5071743;28;20046;-70
2024/04/06 00:03:16;;;;;;;3.47;0.98;;;;;;;;;;5090354;28;20101;-71
2024/04/06 00:05:42;;;;;;;2.70;0.98;;;;;;;;;;5088677;28;20492;-70
2024/04/06 00:08:07;;;;;;;1.75;1.05;;;;;;;;;;5071521;28;20028;-70
2024/04/06 00:10:33;;;;;;;2.05;0.80;;;;;;;;;;5089424;28;20031;-71
2024/04/06 00:12:58;;;;;;;7.30;1.05;;;;;;;;;;5071516;28;20366;-70
2024/04/06 00:15:23;;;;;;;2.22;0.93;;;;;;;;;;5071680;28;20138;-69
2024/04/06 00:17:50;;;;;;;1.88;0.80;;;;;;;;;;5071206;28;20474;-70
2024/04/06 00:20:16;;;;;;;2.63;1.00;;;;;;;;;;5089535;28;20024;-70
2024/04/06 00:22:41;;;;;;;1.65;0.95;;;;;;;;;;5089376;28;20028;-71
2024/04/06 00:25:07;;;;;;;2.95;1.63;;;;;;;;;;5089987;28;20036;-70
2024/04/06 00:27:33;;;;;;;2.38;0.90;;;;;;;;;;5071048;28;20115;-70
2024/04/06 00:29:59;;;;;;;2.05;0.90;;;;;;;;;;5071435;28;20054;-71
2024/04/06 00:32:25;;;;;;;2.42;0.93;;;;;;;;;;5089657;28;20103;-70
2024/04/06 00:34:51;;;;;;;4.05;0.90;;;;;;;;;;5091221;28;20035;-69
2024/04/06 00:37:16;;;;;;;3.55;0.80;;;;;;;;;;5094004;28;20448;-70
2024/04/06 00:39:42;;;;;;;0.75;0.70;;;;;;;;;;5093918;28;20027;-70
2024/04/06 00:42:10;;;;;;;1.50;0.82;;;;;;;;;;5093674;28;20032;-70
2024/04/06 00:44:36;;;;;;;2.92;1.00;;;;;;;;;;5075782;28;20028;-70
2024/04/06 00:47:02;;;;;;;2.67;0.85;;;;;;;;;;5075490;28;20123;-70
2024/04/06 00:49:28;;;;;;;1.23;1.00;;;;;;;;;;5075550;28;20035;-72
2024/04/06 00:51:54;;;;;;;2.25;0.80;;;;;;;;;;5075336;28;20023;-70
2024/04/06 00:54:20;;;;;;;1.30;0.90;;;;;;;;;;5075678;28;20028;-70
2024/04/06 00:56:48;;;;;;;1.27;0.80;;;;;;;;;;5093264;28;20044;-70
2024/04/06 00:59:14;;;;;;;1.90;1.10;;;;;;;;;;5075635;28;20456;-71
2024/04/06 01:01:40;;;;;;;2.78;0.95;;;;;;;;;;5093072;28;20040;-70
2024/04/06 01:04:05;;;;;;;1.42;1.00;;;;;;;;;;5093172;28;20043;-69
2024/04/06 01:06:31;;;;;;;2.55;1.00;;;;;;;;;;5093115;28;20505;-70
2024/04/06 01:08:57;;;;;;;0.65;0.65;;;;;;;;;;5075127;28;20032;-69
2024/04/06 01:11:22;;;;;;;2.38;1.10;;;;;;;;;;5074849;28;20161;-69
2024/04/06 01:13:48;;;;;;;1.65;1.00;;;;;;;;;;5074813;28;20030;-71
2024/04/06 01:16:13;;;;;;;2.33;0.70;;;;;;;;;;5092914;28;20092;-70
2024/04/06 01:18:39;;;;;;;2.22;0.95;;;;;;;;;;5092538;28;20134;-70
2024/04/06 01:21:05;;;;;;;2.05;1.15;;;;;;;;;;5074734;28;20043;-72
2024/04/06 01:23:31;;;;;;;2.42;1.23;;;;;;;;;;5092733;28;20030;-68
2024/04/06 01:25:57;;;;;;;1.40;1.10;;;;;;;;;;5075052;28;20052;-70
2024/04/06 01:28:23;;;;;;;1.30;0.85;;;;;;;;;;5075772;28;20048;-71
2024/04/06 01:30:49;;;;;;;1.42;0.80;;;;;;;;;;5094029;28;20025;-69
2024/04/06 01:33:15;;;;;;;3.17;1.08;;;;;;;;;;5075372;28;20028;-70
2024/04/06 01:35:40;;;;;;;1.92;1.08;;;;;;;;;;5075165;28;20020;-73
2024/04/06 01:38:06;;;;;;;1.63;0.90;;;;;;;;;;5074508;28;20038;-72
2024/04/06 01:40:31;;;;;;;3.13;1.10;;;;;;;;;;5074387;28;20077;-72
2024/04/06 01:42:57;;;;;;;3.47;1.10;;;;;;;;;;5074588;28;20158;-72
2024/04/06 01:45:22;;;;;;;2.25;1.23;;;;;;;;;;5074742;28;20032;-73
2024/04/06 01:47:48;;;;;;;4.88;1.10;;;;;;;;;;5092774;28;20024;-74
2024/04/06 01:50:13;;;;;;;1.63;1.15;;;;;;;;;;5093369;28;20028;-73
2024/04/06 01:52:39;;;;;;;2.85;1.45;;;;;;;;;;5094153;28;20077;-74
2024/04/06 01:55:06;;;;;;;3.33;1.10;;;;;;;;;;5076930;28;20360;-74
2024/04/06 01:57:32;;;;;;;4.38;1.23;;;;;;;;;;5094444;28;20670;-75
2024/04/06 01:59:57;;;;;;;1.77;1.17;;;;;;;;;;5094272;28;20056;-75
2024/04/06 02:02:23;;;;;;;2.05;1.38;;;;;;;;;;5093210;28;20032;-75
2024/04/06 02:04:49;;;;;;;2.45;1.42;;;;;;;;;;5074829;28;20035;-72
2024/04/06 02:07:15;;;;;;;4.00;1.25;;;;;;;;;;5075033;28;20060;-72
2024/04/06 02:09:41;;;;;;;3.65;1.10;;;;;;;;;;5075733;28;20028;-73
2024/04/06 02:12:08;;;;;;;4.43;1.48;;;;;;;;;;5075816;28;20379;-71
2024/04/06 02:14:33;;;;;;;2.63;1.27;;;;;;;;;;5075649;28;20110;-69
2024/04/06 02:16:59;;;;;;;3.67;1.30;;;;;;;;;;5077614;28;20480;-73
2024/04/06 02:19:25;;;;;;;2.70;1.40;;;;;;;;;;5078820;28;20020;-72
2024/04/06 02:21:50;;;;;;;4.10;1.42;;;;;;;;;;5095431;28;20024;-73
2024/04/06 02:24:19;;;;;;;3.63;1.30;;;;;;;;;;5077185;28;20487;-73
2024/04/06 02:26:44;;;;;;;3.33;1.40;;;;;;;;;;5076407;28;20050;-70
2024/04/06 02:29:09;;;;;;;1.95;1.23;;;;;;;;;;5092317;28;20043;-74
2024/04/06 02:31:38;;;;;;;1.45;1.20;;;;;;;;;;5073482;28;20023;-72
2024/04/06 02:34:05;;;;;;;8.27;2.17;;;;;;;;;;5091763;28;20031;-72
2024/04/06 02:36:30;;;;;;;5.47;1.80;;;;;;;;;;5092070;28;20082;-72
2024/04/06 02:38:56;;;;;;;3.17;1.25;;;;;;;;;;5073225;28;20036;-71
2024/04/06 02:41:21;;;;;;;3.25;1.10;;;;;;;;;;5073875;28;20038;-72
2024/04/06 02:43:49;;;;;;;1.92;1.42;;;;;;;;;;5056347;28;20464;-71
2024/04/06 02:46:15;;;;;;;2.58;1.20;;;;;;;;;;5072930;28;20035;-73
2024/04/06 02:48:40;;;;;;;2.55;1.10;;;;;;;;;;5072435;28;20035;-72
2024/04/06 02:51:06;;;;;;;2.05;1.00;;;;;;;;;;5072618;28;20093;-73
2024/04/06 02:53:31;;;;;;;2.28;1.50;;;;;;;;;;5091182;28;20062;-73
2024/04/06 02:55:57;;;;;;;3.08;1.45;;;;;;;;;;5073005;28;20480;-71
2024/04/06 02:58:23;;;;;;;2.58;1.08;;;;;;;;;;5090724;28;20028;-72
2024/04/06 03:00:48;;;;;;;2.42;1.40;;;;;;;;;;5072588;28;20035;-72
2024/04/06 03:03:15;;;;;;;5.05;1.70;;;;;;;;;;5072372;28;20028;-72
2024/04/06 03:05:41;;;;;;;6.53;1.33;;;;;;;;;;5072720;28;20059;-72
2024/04/06 03:08:06;;;;;;;2.10;1.10;;;;;;;;;;5091435;28;20032;-72
2024/04/06 03:10:32;;;;;;;1.65;1.25;;;;;;;;;;5090964;28;20036;-72
2024/04/06 03:12:58;;;;;;;2.22;1.10;;;;;;;;;;5072534;28;20023;-72
2024/04/06 03:15:24;;;;;;;3.63;1.33;;;;;;;;;;5090938;28;20364;-74
2024/04/06 03:17:49;;;;;;;6.55;1.80;;;;;;;;;;5090269;28;20348;-72
2024/04/06 03:20:15;;;;;;;2.97;1.05;;;;;;;;;;5090494;28;20036;-73
2024/04/06 03:22:40;;;;;;;1.80;1.20;;;;;;;;;;5072008;28;20020;-74
2024/04/06 03:25:06;;;;;;;4.20;1.20;;;;;;;;;;5072265;28;20152;-72
2024/04/06 03:27:32;;;;;;;1.48;1.20;;;;;;;;;;5090755;28;20020;-72
2024/04/06 03:29:57;;;;;;;4.18;0.95;;;;;;;;;;5072284;28;20119;-72
2024/04/06 03:32:23;;;;;;;3.45;1.13;;;;;;;;;;5072646;28;20106;-72
2024/04/06 03:34:49;;;;;;;2.83;1.50;;;;;;;;;;5090592;28;20020;-73
2024/04/06 03:37:14;;;;;;;3.38;1.17;;;;;;;;;;5090641;28;20032;-71
2024/04/06 03:39:40;;;;;;;4.47;1.45;;;;;;;;;;5071924;28;20105;-73
2024/04/06 03:42:05;;;;;;;2.50;1.27;;;;;;;;;;5090545;28;20039;-72
2024/04/06 03:44:31;;;;;;;2.42;1.25;;;;;;;;;;5072311;28;20101;-72
2024/04/06 03:46:57;;;;;;;2.53;0.95;;;;;;;;;;5090332;28;20031;-73
2024/04/06 03:49:23;;;;;;;3.28;1.30;;;;;;;;;;5090412;28;20024;-73
2024/04/06 03:51:48;;;;;;;2.33;1.25;;;;;;;;;;5071981;28;20020;-73
2024/04/06 03:54:14;;;;;;;2.95;1.10;;;;;;;;;;5072360;28;20077;-73
2024/04/06 03:56:40;;;;;;;7.28;2.10;;;;;;;;;;5073062;28;20028;-70
2024/04/06 03:59:06;;;;;;;5.28;1.10;;;;;;;;;;5091150;28;20225;-72
2024/04/06 04:01:32;;;;;;;6.00;1.23;;;;;;;;;;5090281;28;20032;-73
2024/04/06 04:03:57;;;;;;;3.97;1.17;;;;;;;;;;5089374;28;20028;-74
2024/04/06 04:06:23;;;;;;;7.60;1.65;;;;;;;;;;5071371;28;20709;-73
2024/04/06 04:08:48;;;;;;;6.63;1.25;;;;;;;;;;5089388;28;20052;-74
2024/04/06 04:11:14;;;;;;;5.65;1.30;;;;;;;;;;5071724;28;20046;-73
2024/04/06 04:13:39;;;;;;;2.60;1.20;;;;;;;;;;5071349;28;20032;-72
2024/04/06 04:16:05;;;;;;;2.58;1.05;;;;;;;;;;5071302;28;20411;-70
2024/04/06 04:18:31;;;;;;;7.40;1.88;;;;;;;;;;5089874;28;20157;-74
2024/04/06 04:20:56;;;;;;;2.83;1.40;;;;;;;;;;5089690;28;20449;-71
2024/04/06 04:23:22;;;;;;;5.35;1.73;;;;;;;;;;5071683;28;20086;-74
2024/04/06 04:25:47;;;;;;;5.40;1.52;;;;;;;;;;5090253;28;20074;-73
2024/04/06 04:28:14;;;;;;;2.55;1.15;;;;;;;;;;5089604;28;20451;-72
2024/04/06 04:30:42;;;;;;;4.05;1.30;;;;;;;;;;5071732;28;20432;-73
2024/04/06 04:33:07;;;;;;;2.97;1.33;;;;;;;;;;5090334;28;20035;-73
2024/04/06 04:35:33;;;;;;;4.63;1.70;;;;;;;;;;5071532;28;20028;-72
2024/04/06 04:37:58;;;;;;;8.40;1.85;;;;;;;;;;5071150;28;20028;-73
2024/04/06 04:40:24;;;;;;;6.10;1.70;;;;;;;;;;5090057;28;20033;-73
2024/04/06 04:42:49;;;;;;;7.13;1.95;;;;;;;;;;5071711;28;20051;-73
2024/04/06 04:45:15;;;;;;;3.67;1.63;;;;;;;;;;5089647;28;20498;-72
2024/04/06 04:47:41;;;;;;;11.75;2.38;;;;;;;;;;5071224;28;20012;-72
2024/04/06 04:50:09;;;;;;;6.70;1.98;;;;;;;;;;5071015;28;20035;-73
2024/04/06 04:52:36;;;;;;;3.60;1.70;;;;;;;;;;5089528;28;20022;-74
2024/04/06 04:55:01;;;;;;;6.03;2.40;;;;;;;;;;5089166;28;20024;-73
2024/04/06 04:57:28;;;;;;;4.20;1.70;;;;;;;;;;5054528;28;20127;-71
2024/04/06 04:59:53;;;;;;;4.35;2.05;;;;;;;;;;5071295;28;20048;-74
2024/04/06 05:02:19;;;;;;;11.02;2.13;;;;;;;;;;5089390;28;20494;-73
2024/04/06 05:04:45;;;;;;;4.35;2.00;;;;;;;;;;5089364;28;20024;-71
2024/04/06 05:07:10;;;;;;;3.92;1.65;;;;;;;;;;5089669;28;20031;-71
2024/04/06 05:09:36;;;;;;;4.68;1.83;;;;;;;;;;5089750;28;20035;-74
2024/04/06 05:12:02;;;;;;;12.45;3.42;;;;;;;;;;5071228;28;20118;-73
2024/04/06 05:14:28;;;;;;;7.88;2.45;;;;;;;;;;5089445;28;20036;-72
2024/04/06 05:16:54;;;;;;;6.93;2.22;;;;;;;;;;5089618;28;20460;-73
2024/04/06 05:19:20;;;;;;;7.05;2.50;;;;;;;;;;5054243;28;20053;-74
2024/04/06 05:21:45;;;;;;;6.53;1.80;;;;;;;;;;5091830;28;20069;-74
2024/04/06 05:24:12;;;;;;;7.35;2.28;;;;;;;;;;5092960;28;20515;-73
2024/04/06 05:26:40;;;;;;;5.60;2.10;;;;;;;;;;5093047;28;20032;-72
2024/04/06 05:29:06;;;;;;;5.13;2.55;;;;;;;;;;5092905;28;20020;-74
2024/04/06 05:31:31;;;;;;;14.82;2.53;;;;;;;;;;5093079;28;20091;-74
2024/04/06 05:33:57;;;;;;;3.22;1.70;;;;;;;;;;5092748;28;20047;-72
2024/04/06 05:36:22;;;;;;;4.15;1.95;;;;;;;;;;5093219;28;20455;-73
2024/04/06 05:38:49;;;;;;;6.57;2.10;;;;;;;;;;5092723;28;20047;-73
2024/04/06 05:41:14;;;;;;;7.38;2.13;;;;;;;;;;5092342;28;20031;-72
2024/04/06 05:43:40;;;;;;;6.85;1.88;;;;;;;;;;5092911;28;20024;-73
2024/04/06 05:46:05;;;;;;;4.43;1.60;;;;;;;;;;5092457;28;20044;-73
2024/04/06 05:48:34;;;;;;;3.50;1.50;;;;;;;;;;5074475;28;20411;-73
2024/04/06 05:50:59;;;;;;;5.47;2.13;;;;;;;;;;5073996;28;20130;-73
2024/04/06 05:53:25;;;;;;;9.32;2.20;;;;;;;;;;5074051;28;20123;-75
2024/04/06 05:55:51;;;;;;;3.63;1.80;;;;;;;;;;5092267;28;20032;-74
2024/04/06 05:58:16;;;;;;;6.10;2.13;;;;;;;;;;5074286;28;20039;-72
2024/04/06 06:00:42;;;;;;;9.27;2.03;;;;;;;;;;5092801;28;20035;-73
2024/04/06 06:03:07;;;;;;;3.95;1.58;;;;;;;;;;5074974;28;20036;-74
2024/04/06 06:05:33;;;;;;;1.95;1.48;;;;;;;;;;5093773;28;20032;-73
2024/04/06 06:08:00;;;;;;;4.60;1.88;;;;;;;;;;5075899;28;20055;-74
2024/04/06 06:10:27;;;;;;;6.32;2.05;;;;;;;;;;5094614;28;20105;-73
2024/04/06 06:12:52;;;;;;;6.55;2.72;;;;;;;;;;5093583;28;20024;-75
2024/04/06 06:15:18;;;;;;;6.18;1.80;;;;;;;;;;5074492;28;20509;-74
2024/04/06 06:17:43;;;;;;;4.60;1.77;;;;;;;;;;5092544;28;20027;-73
2024/04/06 06:20:09;;;;;;;5.50;1.92;;;;;;;;;;5092025;28;20028;-72
2024/04/06 06:22:35;;;;;;;5.32;2.00;;;;;;;;;;5091901;28;20032;-72
2024/04/06 06:25:00;;;;;;;9.07;2.67;;;;;;;;;;5073404;28;20028;-73
2024/04/06 06:27:26;;;;;;;5.47;2.17;;;;;;;;;;5092134;28;20105;-73
2024/04/06 06:29:52;;;;;;;3.20;1.70;;;;;;;;;;5073626;28;20032;-74
2024/04/06 06:32:18;;;;;;;5.72;1.60;;;;;;;;;;5072305;28;20516;-72
2024/04/06 06:34:44;;;;;;;7.85;2.65;;;;;;;;;;5091353;28;20032;-73
2024/04/06 06:37:10;;;;;;;6.20;2.30;;;;;;;;;;5072573;28;20046;-72
2024/04/06 06:39:35;;;;;;;6.60;2.63;;;;;;;;;;5073180;28;20547;-73
2024/04/06 06:42:01;;;;;;;5.00;2.35;;;;;;;;;;5073155;28;20108;-73
2024/04/06 06:44:26;;;;;;;5.03;2.10;;;;;;;;;;5091590;28;20036;-74
2024/04/06 06:46:52;;;;;;;6.18;1.75;;;;;;;;;;5073269;28;20464;-73
2024/04/06 06:49:17;;;;;;;4.43;1.63;;;;;;;;;;5073168;28;20056;-74
2024/04/06 06:51:43;;;;;;;3.53;1.60;;;;;;;;;;5073304;28;20027;-72
2024/04/06 06:54:08;;;;;;;12.18;2.80;;;;;;;;;;5091188;28;20035;-73
2024/04/06 06:56:34;;;;;;;6.13;2.00;;;;;;;;;;5091579;28;20051;-72
2024/04/06 06:59:00;;;;;;;6.30;2.25;;;;;;;;;;5072585;28;20028;-73
2024/04/06 07:01:25;;;;;;;6.03;2.08;;;;;;;;;;5072855;28;20353;-74
2024/04/06 07:03:51;;;;;;;3.78;1.88;;;;;;;;;;5091097;28;20028;-72
2024/04/06 07:06:17;;;;;;;4.13;2.58;;;;;;;;;;5091578;28;20510;-73
2024/04/06 07:08:43;;;;;;;5.40;2.70;;;;;;;;;;5073828;28;20059;-74
2024/04/06 07:11:10;;;;;;;4.97;1.80;;;;;;;;;;5091085;28;20119;-74
2024/04/06 07:13:36;;;;;;;5.50;2.00;;;;;;;;;;5073957;28;20073;-74
2024/04/06 07:16:06;;;;;;;6.28;1.67;;;;;;;;;;5091309;28;20077;-73
2024/04/06 07:18:34;;;;;;;25.05;3.25;;;;;;;;;;5092127;28;20031;-72
2024/04/06 07:21:00;;;;;;;6.80;2.17;;;;;;;;;;5091645;28;20111;-73
2024/04/06 07:23:26;;;;;;;2.75;1.67;;;;;;;;;;5073823;28;20122;-74
2024/04/06 07:25:53;;;;;;;6.15;1.83;;;;;;;;;;5092574;28;20032;-72
2024/04/06 07:28:18;;;;;;;5.85;2.50;;;;;;;;;;5073745;28;20023;-75
2024/04/06 07:30:44;;;;;;;6.82;2.28;;;;;;;;;;5091781;28;20028;-75
2024/04/06 07:33:11;;;;;;;2.90;1.60;;;;;;;;;;5092439;28;20016;-75
2024/04/06 07:35:37;;;;;;;4.88;1.90;;;;;;;;;;5092007;28;20019;-72
2024/04/06 07:38:03;;;;;;;4.88;2.05;;;;;;;;;;5090907;28;20052;-75
2024/04/06 07:40:31;;;;;;;2.95;1.60;;;;;;;;;;5091157;28;20116;-75
2024/04/06 07:42:57;;;;;;;4.20;1.95;;;;;;;;;;5072851;28;20165;-73
2024/04/06 07:45:22;;;;;;;2.47;1.63;;;;;;;;;;5072871;28;20122;-74
2024/04/06 07:47:48;;;;;;;2.75;1.27;;;;;;;;;;5073366;28;20103;-74
2024/04/06 07:50:15;;;;;;;11.32;2.25;;;;;;;;;;5072792;28;20158;-73
2024/04/06 07:52:40;;;;;;;3.42;1.52;;;;;;;;;;5090697;28;20020;-75
2024/04/06 07:55:06;;;;;;;6.75;1.60;;;;;;;;;;5072874;28;20181;-74
2024/04/06 07:57:32;;;;;;;3.72;1.75;;;;;;;;;;5091298;28;20047;-73
2024/04/06 07:59:57;;;;;;;1.45;1.30;;;;;;;;;;5090370;28;20404;-74
2024/04/06 08:02:23;;;;;;;2.50;1.50;;;;;;;;;;5072371;28;20456;-75
2024/04/06 08:04:55;;;;;;;4.22;1.70;;;;;;;;;;5091133;28;20024;-74
2024/04/06 08:07:24;;;;;;;2.65;1.20;;;;;;;;;;5091873;28;20065;-72
2024/04/06 08:09:55;;;;;;;3.25;2.22;;;;;;;;;;5072958;28;20118;-73
2024/04/06 08:12:21;;;;;;;6.38;1.67;;;;;;;;;;5090872;28;20027;-76
2024/04/06 08:14:46;;;;;;;3.50;1.25;;;;;;;;;;5091375;28;20044;-75
2024/04/06 08:17:12;;;;;;;6.78;1.58;;;;;;;;;;5091185;28;20039;-74
2024/04/06 08:19:38;;;;;;;3.30;1.70;;;;;;;;;;5091086;28;20422;-72
2024/04/06 08:22:03;;;;;;;1.52;1.20;;;;;;;;;;5072583;28;20040;-75
2024/04/06 08:24:31;;;;;;;4.15;1.38;;;;;;;;;;5091189;28;20028;-74
2024/04/06 08:26:57;;;;;;;4.05;1.45;;;;;;;;;;5089136;28;20028;-73
2024/04/06 08:29:23;;;;;;;3.03;1.42;;;;;;;;;;5090916;28;20027;-73
2024/04/06 08:31:49;;;;;;;5.63;1.80;;;;;;;;;;5089812;28;20514;-73
2024/04/06 08:34:14;;;;;;;5.35;1.45;;;;;;;;;;5090918;28;20510;-72
2024/04/06 08:36:40;;;;;;;4.50;1.30;;;;;;;;;;5072294;28;20231;-73
2024/04/06 08:39:05;;;;;;;2.65;1.45;;;;;;;;;;5090483;28;20039;-74
2024/04/06 08:41:32;;;;;;;2.78;1.38;;;;;;;;;;5072278;28;20031;-74
2024/04/06 08:44:00;;;;;;;2.45;1.35;;;;;;;;;;5055564;28;20085;-74
2024/04/06 08:46:27;;;;;;;8.27;1.35;;;;;;;;;;5072746;28;20030;-73
2024/04/06 08:48:52;;;;;;;3.10;1.58;;;;;;;;;;5072421;28;20016;-75
2024/04/06 08:51:20;;;;;;;9.00;1.73;;;;;;;;;;5072123;28;20371;-72
2024/04/06 08:53:46;;;;;;;3.72;1.20;;;;;;;;;;5055546;28;20105;-75
2024/04/06 08:56:15;;;;;;;4.47;1.20;;;;;;;;;;5074440;28;20497;-73
2024/04/06 08:58:41;;;;;;;2.95;1.20;;;;;;;;;;5076314;28;20024;-74
2024/04/06 09:01:07;;;;;;;2.03;1.17;;;;;;;;;;5094311;28;20039;-73
2024/04/06 09:03:33;;;;;;;2.90;1.00;;;;;;;;;;5076374;28;20024;-73
2024/04/06 09:05:59;;;;;;;1.73;1.00;;;;;;;;;;5094391;28;20032;-74
2024/04/06 09:08:25;;;;;;;2.15;0.88;;;;;;;;;;5094085;28;20031;-73
2024/04/06 09:11:00;;;;;;;1.75;0.80;;;;;;;;;;5075940;28;20028;-73
2024/04/06 09:13:28;;;;;;;1.25;0.90;;;;;;;;;;5094179;28;20039;-76
2024/04/06 09:15:54;;;;;;;3.58;0.90;;;;;;;;;;5094550;28;20042;-73
2024/04/06 09:18:19;;;;;;;2.58;1.20;;;;;;;;;;5093982;28;20023;-73
2024/04/06 09:20:51;;;;;;;2.10;1.00;;;;;;;;;;5075543;28;20468;-72
2024/04/06 09:23:18;;;;;;;4.63;1.20;;;;;;;;;;5059676;28;20044;-73
2024/04/06 09:25:44;;;;;;;3.42;1.08;;;;;;;;;;5075925;28;20663;-71
2024/04/06 09:28:10;;;;;;;3.47;1.42;;;;;;;;;;5076124;28;20024;-74
2024/04/06 09:30:43;;;;;;;1.38;1.05;;;;;;;;;;5075504;28;20433;-73
2024/04/06 09:33:12;;;;;;;1.50;0.60;;;;;;;;;;5093427;28;20016;-75
2024/04/06 09:35:39;;;;;;;1.42;0.90;;;;;;;;;;5076413;28;20024;-76
2024/04/06 09:38:13;;;;;;;1.27;0.80;;;;;;;;;;5075426;28;20024;-74
2024/04/06 09:40:43;;;;;;;1.77;1.08;;;;;;;;;;5093948;28;20697;-74
2024/04/06 09:43:09;;;;;;;3.67;0.70;;;;;;;;;;5076198;28;20030;-71
2024/04/06 09:45:35;;;;;;;5.22;1.05;;;;;;;;;;5059399;28;20141;-72
2024/04/06 09:48:02;;;;;;;3.60;1.00;;;;;;;;;;5075437;28;20012;-76
2024/04/06 09:50:30;;;;;;;2.17;0.70;;;;;;;;;;5093861;28;20032;-76
2024/04/06 09:52:56;;;;;;;1.80;1.10;;;;;;;;;;5093737;28;20028;-73
2024/04/06 09:55:24;;;;;;;2.03;0.90;;;;;;;;;;5075687;28;20115;-73
2024/04/06 09:57:50;;;;;;;2.97;1.15;;;;;;;;;;5093959;28;20110;-74
2024/04/06 10:00:16;;;;;;;4.35;1.23;;;;;;;;;;5094027;28;20115;-73
2024/04/06 10:02:43;;;;;;;8.52;1.30;;;;;;;;;;5094561;28;20084;-72
2024/04/06 10:05:11;;;;;;;6.10;1.00;;;;;;;;;;5076037;28;20020;-74
2024/04/06 10:07:37;;;;;;;1.90;0.70;;;;;;;;;;5076852;28;20058;-73
2024/04/06 10:10:04;;;;;;;2.33;0.90;;;;;;;;;;5076811;28;20035;-72
2024/04/06 10:12:56;;;;;;;2.78;1.38;;;;;;;;;;5095620;28;20020;-74
2024/04/06 10:15:22;;;;;;;4.20;0.90;;;;;;;;;;5091488;28;20032;-72
2024/04/06 10:17:49;;;;;;;2.38;1.00;;;;;;;;;;5096028;28;20103;-76
2024/04/06 10:20:23;;;;;;;3.78;0.98;;;;;;;;;;5098964;28;20031;-75
2024/04/06 10:22:53;;;;;;;2.97;0.88;;;;;;;;;;5082168;28;20117;-74
2024/04/06 10:25:26;;;;;;;3.00;1.20;;;;;;;;;;5100058;28;20115;-75
2024/04/06 10:28:00;;;;;;;1.98;1.08;;;;;;;;;;5078864;28;20034;-74
2024/04/06 10:30:26;;;;;;;1.52;0.85;;;;;;;;;;5075630;28;20047;-71
2024/04/06 10:32:53;;;;;;;2.22;1.02;;;;;;;;;;5075004;28;20020;-75
2024/04/06 10:35:18;;;;;;;2.60;1.25;;;;;;;;;;5074837;28;20028;-74
2024/04/06 10:37:48;;;;;;;3.90;1.67;;;;;;;;;;5093065;28;20028;-74
2024/04/06 10:40:14;;;;;;;3.17;0.90;;;;;;;;;;5074838;28;20032;-74
2024/04/06 10:42:40;;;;;;;4.78;1.02;;;;;;;;;;5075205;28;20024;-75
2024/04/06 10:45:11;;;;;;;3.70;0.93;;;;;;;;;;5074973;28;20024;-74
2024/04/06 10:47:39;;;;;;;6.18;1.10;;;;;;;;;;5092868;28;20077;-73
2024/04/06 10:50:08;;;;;;;2.10;1.00;;;;;;;;;;5073864;28;20020;-74
2024/04/06 10:52:35;;;;;;;2.53;0.95;;;;;;;;;;5057916;28;20028;-73
2024/04/06 10:55:09;;;;;;;1.77;0.90;;;;;;;;;;5074472;28;20020;-75
2024/04/06 10:57:39;;;;;;;6.20;1.35;;;;;;;;;;5074819;28;20110;-73
2024/04/06 11:00:08;;;;;;;2.38;1.10;;;;;;;;;;5074232;28;20035;-74
2024/04/06 11:02:38;;;;;;;3.20;0.90;;;;;;;;;;5092565;28;20111;-75
2024/04/06 11:05:08;;;;;;;6.13;1.40;;;;;;;;;;5057132;28;20051;-70
2024/04/06 11:07:37;;;;;;;2.65;1.20;;;;;;;;;;5074182;28;20091;-74
2024/04/06 11:10:03;;;;;;;3.80;1.13;;;;;;;;;;5092144;28;20066;-74
2024/04/06 11:12:29;;;;;;;2.95;1.10;;;;;;;;;;5073351;28;20074;-75
2024/04/06 11:15:02;;;;;;;2.97;1.13;;;;;;;;;;5073283;28;20139;-74
2024/04/06 11:17:28;;;;;;;0.70;0.65;;;;;;;;;;5092002;28;20060;-71
2024/04/06 11:19:55;;;;;;;2.30;0.82;;;;;;;;;;5091418;28;20024;-72
2024/04/06 11:22:21;;;;;;;4.57;1.50;;;;;;;;;;5091405;28;20111;-75
2024/04/06 11:24:48;;;;;;;1.63;1.08;;;;;;;;;;5091466;28;20718;-73
2024/04/06 11:27:22;;;;;;;1.35;1.00;;;;;;;;;;5090953;28;20059;-74
2024/04/06 11:29:49;;;;;;;3.38;1.30;;;;;;;;;;5073028;28;20028;-73
2024/04/06 11:32:23;;;;;;;3.65;1.20;;;;;;;;;;5090750;28;20027;-75
2024/04/06 11:34:50;;;;;;;1.02;0.80;;;;;;;;;;5090867;28;20356;-72
2024/04/06 11:37:17;;;;;;;3.65;0.93;;;;;;;;;;5071643;28;20399;-74
2024/04/06 11:39:43;;;;;;;5.05;1.17;;;;;;;;;;5089975;28;20523;-72
2024/04/06 11:42:09;;;;;;;3.25;1.17;;;;;;;;;;5071550;28;20028;-71
2024/04/06 11:44:34;;;;;;;1.88;0.80;;;;;;;;;;5072395;28;20031;-73
2024/04/06 11:47:01;;;;;;;4.97;1.30;;;;;;;;;;5072024;28;20122;-73
2024/04/06 11:49:26;;;;;;;3.35;0.90;;;;;;;;;;5071794;28;20053;-73
2024/04/06 11:51:52;;;;;;;1.38;0.60;;;;;;;;;;5072129;28;20016;-72
2024/04/06 11:54:17;;;;;;;1.20;0.90;;;;;;;;;;5090301;28;20103;-73
2024/04/06 11:56:43;;;;;;;1.50;0.73;;;;;;;;;;5090529;28;20048;-74
2024/04/06 11:59:09;;;;;;;1.90;1.10;;;;;;;;;;5090052;28;20038;-75
2024/04/06 12:01:36;;;;;;;2.08;1.00;;;;;;;;;;5071903;28;20035;-73
2024/04/06 12:04:02;;;;;;;3.40;1.20;;;;;;;;;;5090253;28;20024;-75
2024/04/06 12:06:28;;;;;;;2.92;0.93;;;;;;;;;;5089859;28;20215;-72
2024/04/06 12:08:54;;;;;;;1.25;1.08;;;;;;;;;;5090281;28;20324;-73
2024/04/06 12:11:19;;;;;;;4.95;1.20;;;;;;;;;;5071518;28;20020;-74
2024/04/06 12:13:45;;;;;;;13.02;1.42;;;;;;;;;;5090300;28;20024;-73
2024/04/06 12:16:10;;;;;;;2.08;0.80;;;;;;;;;;5071369;28;20024;-74
2024/04/06 12:18:37;;;;;;;1.60;0.98;;;;;;;;;;5090064;28;20510;-75
2024/04/06 12:21:03;;;;;;;3.00;1.10;;;;;;;;;;5089770;28;20507;-76
2024/04/06 12:23:28;;;;;;;1.85;0.90;;;;;;;;;;5071074;28;20043;-73
2024/04/06 12:25:54;;;;;;;3.53;1.08;;;;;;;;;;5071636;28;20456;-75
2024/04/06 12:28:19;;;;;;;2.95;1.30;;;;;;;;;;5071294;28;20016;-74
2024/04/06 12:30:45;;;;;;;1.08;0.70;;;;;;;;;;5070789;28;20024;-75
2024/04/06 12:33:10;;;;;;;1.95;1.15;;;;;;;;;;5089825;28;20016;-74
2024/04/06 12:35:36;;;;;;;1.40;0.82;;;;;;;;;;5071933;28;20020;-75
2024/04/06 12:38:02;;;;;;;1.30;0.82;;;;;;;;;;5090189;28;20035;-75
2024/04/06 12:40:28;;;;;;;2.47;1.40;;;;;;;;;;5071191;28;20020;-75
2024/04/06 12:42:54;;;;;;;2.47;1.23;;;;;;;;;;5071252;28;20796;-75
2024/04/06 12:45:19;;;;;;;2.45;1.00;;;;;;;;;;5088953;28;20028;-74
2024/04/06 12:47:45;;;;;;;3.13;1.27;;;;;;;;;;5089283;28;20028;-73
2024/04/06 12:50:10;;;;;;;3.17;1.10;;;;;;;;;;5089077;28;20059;-72
2024/04/06 12:52:36;;;;;;;2.45;0.93;;;;;;;;;;5089321;28;20027;-75
2024/04/06 12:55:04;;;;;;;3.92;1.10;;;;;;;;;;5089168;28;20031;-75
2024/04/06 12:57:45;;;;;;;2.45;1.85;;;;;;;;;;5054026;28;20087;-74
2024/04/06 13:00:13;;;;;;;2.85;1.10;;;;;;;;;;5089096;28;20024;-69
2024/04/06 13:02:40;;;;;;;4.30;1.13;;;;;;;;;;5071402;28;20036;-71
2024/04/06 13:05:06;;;;;;;1.35;0.90;;;;;;;;;;5071453;28;20024;-75
2024/04/06 13:07:33;;;;;;;0.82;0.80;;;;;;;;;;5071059;28;20449;-76
2024/04/06 13:10:04;;;;;;;0.88;0.80;;;;;;;;;;5089470;28;20032;-73
2024/04/06 13:12:30;;;;;;;1.63;1.05;;;;;;;;;;5071168;28;20103;-73
2024/04/06 13:15:13;;;;;;;2.80;1.00;;;;;;;;;;5089630;28;20512;-77
2024/04/06 13:17:43;;;;;;;3.22;0.93;;;;;;;;;;5071652;28;20032;-75
2024/04/06 13:20:10;;;;;;;2.55;0.80;;;;;;;;;;5071391;28;20043;-74
2024/04/06 13:22:37;;;;;;;1.75;0.80;;;;;;;;;;5089585;28;20040;-73
2024/04/06 13:25:05;;;;;;;1.55;1.00;;;;;;;;;;5071393;28;20028;-75
2024/04/06 13:27:31;;;;;;;1.52;1.10;;;;;;;;;;5089528;28;20043;-74
2024/04/06 13:29:56;;;;;;;2.33;1.02;;;;;;;;;;5070989;28;20028;-74
2024/04/06 13:32:22;;;;;;;2.38;1.00;;;;;;;;;;5070390;28;20406;-74
2024/04/06 13:34:55;;;;;;;1.80;0.85;;;;;;;;;;5089413;28;20032;-75
2024/04/06 13:37:24;;;;;;;1.10;1.00;;;;;;;;;;5089324;28;20036;-73
2024/04/06 13:39:53;;;;;;;4.15;1.05;;;;;;;;;;5054567;28;20513;-73
2024/04/06 13:42:19;;;;;;;3.55;1.10;;;;;;;;;;5072655;28;20030;-76
2024/04/06 13:44:46;;;;;;;1.40;0.90;;;;;;;;;;5074656;28;20028;-75
2024/04/06 13:47:12;;;;;;;4.60;1.25;;;;;;;;;;5075071;28;20107;-74
2024/04/06 13:49:38;;;;;;;3.15;2.33;;;;;;;;;;5074338;28;20485;-75
2024/04/06 13:52:08;;;;;;;3.72;1.42;;;;;;;;;;5074463;28;20111;-73
2024/04/06 13:54:37;;;;;;;1.70;1.03;;;;;;;;;;5092374;28;20024;-73
2024/04/06 13:57:04;;;;;;;3.47;0.85;;;;;;;;;;5092469;28;20284;-74
2024/04/06 13:59:29;;;;;;;1.83;0.73;;;;;;;;;;5074220;28;20028;-74
2024/04/06 14:01:55;;;;;;;4.10;0.77;;;;;;;;;;5092064;28;20077;-74
2024/04/06 14:04:20;;;;;;;0.80;0.70;;;;;;;;;;5073768;28;20523;-72
2024/04/06 14:06:46;;;;;;;2.00;1.00;;;;;;;;;;5073658;28;20027;-74
2024/04/06 14:09:15;;;;;;;2.55;0.85;;;;;;;;;;5073820;28;20032;-73
2024/04/06 14:11:41;;;;;;;1.05;0.95;;;;;;;;;;5073840;28;20100;-73
2024/04/06 14:14:18;;;;;;;2.63;0.90;;;;;;;;;;5073851;28;20024;-74
2024/04/06 14:16:45;;;;;;;3.90;0.70;;;;;;;;;;5092143;28;20032;-74
2024/04/06 14:19:14;;;;;;;2.72;1.20;;;;;;;;;;5092080;28;20042;-73
2024/04/06 14:21:39;;;;;;;2.22;0.80;;;;;;;;;;5057017;28;20050;-75
2024/04/06 14:24:07;;;;;;;12.55;1.10;;;;;;;;;;5092654;28;20531;-73
2024/04/06 14:26:33;;;;;;;1.02;0.80;;;;;;;;;;5074155;28;20076;-72
2024/04/06 14:29:03;;;;;;;2.63;0.70;;;;;;;;;;5092744;28;20027;-75
2024/04/06 14:31:29;;;;;;;8.48;1.10;;;;;;;;;;5074717;28;20039;-70
2024/04/06 14:33:54;;;;;;;1.90;0.80;;;;;;;;;;5076079;28;20364;-74
2024/04/06 14:36:20;;;;;;;4.93;0.82;;;;;;;;;;5100652;28;20054;-71
2024/04/06 14:38:45;;;;;;;5.63;1.10;;;;;;;;;;5084347;28;20065;-73